< Typhoon 201804 2018 Season Typhoon 201806 >
Typhoon 201805 (MALIKSI)
General InformationTrack Information on Google MapsDetailed Wind InformationForecast History on Google MapsAccess Analytics MapList of All Images || NewsDisaster Info.WeblogTrackbackTyphoon FrontTwiphoonTyphoon Now!Typhoon ImaginationJMA Disaster Info. XMLResourceGoogle EarthGE AnimationAtom FeedGeoJSON
Detalied Best Track (Time Zone = UTC)
Year Month Day Hour Lat. Long. Pressure (hPa) Wind (kt) Class Image Chart
2018 6 3 18 9.7 131.8 1004 0 2 Image Chart
2018 6 4 00 9.6 131.9 1006 0 2 Image Chart
2018 6 4 06 9.8 132.0 1004 0 2 Image Chart
2018 6 4 12 9.9 132.0 1004 0 2 Image Chart
2018 6 4 18 10.0 132.0 1004 0 2 Image Chart
2018 6 5 00 10.1 132.0 1004 0 2 Image Chart
2018 6 5 06 10.6 132.1 1004 0 2 Image Chart
2018 6 5 12 11.0 132.2 1004 0 2 Image Chart
2018 6 5 18 12.1 131.7 1002 0 2 Image Chart
2018 6 6 00 13.0 131.3 1004 0 2 Image Chart
2018 6 6 06 13.8 130.7 1002 0 2 Image Chart
2018 6 6 12 14.7 130.0 1004 0 2 Image Chart
2018 6 6 18 15.4 129.2 1004 0 2 Image Chart
2018 6 7 00 16.0 128.5 1002 0 2 Image Chart
2018 6 7 06 16.2 128.4 1000 0 2 Image Chart
2018 6 7 12 16.8 128.0 1000 0 2 Image Chart
2018 6 7 18 17.3 127.9 996 35 3 Image Chart
2018 6 8 00 17.8 127.8 996 35 3 Image Chart
2018 6 8 06 18.9 127.2 996 35 3 Image Chart
2018 6 8 12 19.7 126.8 996 35 3 Image Chart
2018 6 8 18 20.4 126.7 992 40 3 Image Chart
2018 6 9 00 21.9 127.0 990 45 3 Image Chart
2018 6 9 06 22.3 127.5 985 50 4 Image Chart
2018 6 9 12 22.8 128.1 985 50 4 Image Chart
2018 6 9 15 23.1 128.6 985 50 4 Image Chart
2018 6 9 18 23.5 129.4 975 55 4 Image Chart
2018 6 9 21 24.3 130.1 975 55 4 Image Chart
2018 6 10 00 25.0 130.7 970 60 4 Image Chart
2018 6 10 03 25.8 131.4 970 60 4 Image Chart
2018 6 10 06 26.3 132.3 970 60 4 Image Chart
2018 6 10 09 26.8 133.4 970 60 4 Image Chart
2018 6 10 12 27.6 134.4 975 55 4 Image Chart
2018 6 10 18 28.9 136.5 980 55 4 Image Chart
2018 6 11 00 30.6 139.0 980 50 4 Image Chart
2018 6 11 06 32.7 141.2 980 50 4 Image Chart
2018 6 11 12 34.6 144.8 980 50 4 Image Chart
2018 6 11 18 36.5 148.0 984 0 6 Image Chart
2018 6 12 00 37.8 149.8 984 0 6 Image Chart
2018 6 12 06 38.8 152.0 984 0 6 Image Chart
2018 6 12 12 39.0 155.4 992 0 6 Image Chart
2018 6 12 18 38.8 157.7 996 0 6 Image Chart
Japan Meteorological Agency Best Track Data | Correction Date : 2018-07-18
< Typhoon 201804 2018 Season Typhoon 201806 >

Help